Clarksburg, Ohio
Current Conditions -  °F | °C
As of 9:34 AM on Saturday 25 Oct 2014 (Local Time) from KRZT Reporting Station
Scattered Clouds Scattered Clouds  
Wind Chill: 50°   Ceiling: Unl
Heat Index: 50°   Visibility: 10mi
Dew Point: 45°   Wind: 5mph
Humidity: 82%   Direction: 190°S
Pressure: 30"   Gusts: NA
Location:  39.51°N, 83.15°W
Report Text: KRZT 251334Z AUTO 19004KT 10SM SCT065 SCT090 10/07 A3000 RMK AO2
Loading
Personal Weather Stations






























Interactive Weather Map
Tropical Storm Tracking
New forecast layout! Learn more

10-Day Weather Forecast

Advertisements
Track Severe Weather on mobile